Архив погоды в Авангарде Зерносовхозе

Метеограмма Авангард Зерносовхоз
Пятница, 26 Мая
Время местн. Темп Ветер Видим Явления Облачность нижн/средн/верх Атм. давл. Влжн Точка росы ВНГО R Сост. почвы Tg s
Напр Скр Прв ур.ст ур.м изм
04:00 +10.3° В 1 - 20 км - ясно 756 764 -0.3 78% +6.7° более 2.5 км - - - -
01:00 +11.4° В,Ю-В 1 - 50 км - ясно 756 764 +0.1 75% +7.1° более 2.5 км - - - -
Четверг, 25 Мая
Время местн. Темп Ветер Видим Явления Облачность нижн/средн/верх Атм. давл. Влжн Точка росы ВНГО R Сост. почвы Tg s
Напр Скр Прв ур.ст ур.м изм
22:00 +15° Ю 3 - 50 км - переменная облачность 756 764 +0.6 63% +8° - - - - -
19:00 +23.2° Ю,Ю-З 3 - 20 км - переменная облачность 755 763 -0.5 34% +6.5° 1 км 0 - - -
16:00 +24.8° Ю,Ю-З 4 - 20 км - облачно с прояснениями 756 763 -0.8 30% +6° 1 км - - - -
13:00 +23.9° Ю-З 3 - 20 км - облачно с прояснениями 756 764 -0.3 35% +7.7° 1 км - - - -
10:00 +21.6° Ю,Ю-З 5 - 20 км - ясно 757 765 +0.2 42% +8.2° более 2.5 км - - - -
07:00 +14° Ю 2 - 20 км - ясно 757 765 +0.3 63% +7° более 2.5 км 0 - +7° -
04:00 +8.1° Ю,Ю-В 1 - 50 км - ясно 756 765 +0.1 69% +2.8° более 2.5 км - - - -
01:00 +10.4° Ю 3 - 50 км - ясно 756 765 +0.4 58% +2.4° более 2.5 км - - - -
Среда, 24 Мая
Время местн. Темп Ветер Видим Явления Облачность нижн/средн/верх Атм. давл. Влжн Точка росы ВНГО R Сост. почвы Tg s
Напр Скр Прв ур.ст ур.м изм
22:00 +11.6° Ю 2 - 50 км - ясно 756 764 +0.9 56% +3.2° более 2.5 км - - - -
19:00 +20.2° З,Ю-З 3 - 20 км - ясно 755 763 -0.2 26% +0.2° более 2.5 км 0 - - -
16:00 +20.2° З 3 - 20 км - переменная облачность 755 763 -0.6 27% +0.5° - - - - -
13:00 +18.4° З 4 11 20 км - переменная облачность 756 764 +0.1 27% -1° более 2.5 км - - - -
10:00 +16.2° З 4 - 20 км - переменная облачность 756 764 +0.4 28% -2.5° 1 км - - - -
07:00 +8.8° Ю 1 - 20 км - ясно 756 764 +0.6 61% +1.7° более 2.5 км 0 Сухая (без трещин) - -
04:00 +0.2° В,Ю-В 2 - 50 км - ясно 755 763 +0.6 87% -1.7° более 2.5 км - - - -
01:00 +0.1° В,Ю-В 2 - 50 км - ясно 754 763 +1.1 89% -1.5° более 2.5 км - - - -
Вторник, 23 Мая
Время местн. Темп Ветер Видим Явления Облачность нижн/средн/верх Атм. давл. Влжн Точка росы ВНГО R Сост. почвы Tg s
Напр Скр Прв ур.ст ур.м изм
22:00 +3° штиль 0 - 50 км - ясно 753 762 +1.4 75% -1° 600 м - - - -
19:00 +12.8° С,С-З 5 10 20 км - облачно с прояснениями 752 760 +1.1 33% -2.9° 600 м 0 - - -
16:00 +13.3° С 5 - 20 км - облачно 751 759 +1.3 34% -2.3° 1 км - - - -
13:00 +14.3° С,С-З 5 - 20 км - облачно 749 757 +1 32% -2° 1 км - - - -
10:00 +12.9° С,С-З 3 - 20 км - облачно 748 756 +1 47% +1.9° 1 км - - - -
07:00 +7.9° С 3 - 20 км - переменная облачность 747 756 +0.8 69% +2.5° более 2.5 км 0 Влажная (без луж) - -
04:00 +7.7° С-З 2 - 50 км - облачно 747 755 +0.6 79% +4.3° 1 км - - - -
01:00 +8.3° С 1 - 50 км - облачно 746 754 -0.2 87% +6.2° 1 км - - - -